sensor_id;sensor_type;location;lat;lon;timestamp;pressure;altitude;pressure_sealevel;temperature;humidity
9521;BME280;4798;41.574;23.734;2023-02-28T00:01:28;95727.34;;;11.86;100.00
9521;BME280;4798;41.574;23.734;2023-02-28T00:03:58;95724.41;;;11.87;100.00
9521;BME280;4798;41.574;23.734;2023-02-28T00:06:27;95721.75;;;11.82;100.00
9521;BME280;4798;41.574;23.734;2023-02-28T00:08:55;95719.09;;;11.77;100.00
9521;BME280;4798;41.574;23.734;2023-02-28T00:11:23;95725.38;;;11.11;100.00
9521;BME280;4798;41.574;23.734;2023-02-28T00:13:52;95730.97;;;11.14;100.00
9521;BME280;4798;41.574;23.734;2023-02-28T00:16:21;95728.88;;;11.31;100.00
9521;BME280;4798;41.574;23.734;2023-02-28T00:18:50;95726.50;;;11.65;100.00
9521;BME280;4798;41.574;23.734;2023-02-28T00:21:20;95726.53;;;11.80;100.00
9521;BME280;4798;41.574;23.734;2023-02-28T00:23:49;95724.94;;;11.89;100.00
9521;BME280;4798;41.574;23.734;2023-02-28T00:26:17;95734.44;;;11.20;100.00
9521;BME280;4798;41.574;23.734;2023-02-28T00:28:47;95730.97;;;11.19;100.00
9521;BME280;4798;41.574;23.734;2023-02-28T00:31:16;95718.78;;;11.54;100.00
9521;BME280;4798;41.574;23.734;2023-02-28T00:33:44;95725.63;;;11.04;100.00
9521;BME280;4798;41.574;23.734;2023-02-28T00:36:13;95729.88;;;11.00;100.00
9521;BME280;4798;41.574;23.734;2023-02-28T00:38:42;95730.47;;;11.27;100.00
9521;BME280;4798;41.574;23.734;2023-02-28T00:41:11;95735.28;;;11.51;100.00
9521;BME280;4798;41.574;23.734;2023-02-28T00:43:39;95726.25;;;11.72;100.00
9521;BME280;4798;41.574;23.734;2023-02-28T00:46:08;95726.25;;;11.77;100.00
9521;BME280;4798;41.574;23.734;2023-02-28T00:48:37;95726.22;;;11.52;100.00
9521;BME280;4798;41.574;23.734;2023-02-28T00:51:05;95730.09;;;10.89;100.00
9521;BME280;4798;41.574;23.734;2023-02-28T00:53:33;95729.66;;;11.27;100.00
9521;BME280;4798;41.574;23.734;2023-02-28T00:56:04;95732.63;;;11.45;100.00
9521;BME280;4798;41.574;23.734;2023-02-28T00:58:32;95726.75;;;11.59;100.00
9521;BME280;4798;41.574;23.734;2023-02-28T01:01:00;95727.84;;;11.68;100.00
9521;BME280;4798;41.574;23.734;2023-02-28T01:03:29;95722.00;;;11.66;100.00
9521;BME280;4798;41.574;23.734;2023-02-28T01:05:57;95730.78;;;11.61;100.00
9521;BME280;4798;41.574;23.734;2023-02-28T01:08:25;95734.13;;;11.11;100.00
9521;BME280;4798;41.574;23.734;2023-02-28T01:10:54;95731.69;;;10.84;100.00
9521;BME280;4798;41.574;23.734;2023-02-28T01:13:23;95729.50;;;10.66;100.00
9521;BME280;4798;41.574;23.734;2023-02-28T01:15:54;95668.94;;;10.38;100.00
9521;BME280;4798;41.574;23.734;2023-02-28T01:18:23;95721.97;;;11.25;100.00
9521;BME280;4798;41.574;23.734;2023-02-28T01:20:52;95685.25;;;10.72;100.00
9521;BME280;4798;41.574;23.734;2023-02-28T01:23:21;95734.84;;;10.76;100.00
9521;BME280;4798;41.574;23.734;2023-02-28T01:25:51;95743.66;;;10.40;100.00
9521;BME280;4798;41.574;23.734;2023-02-28T01:28:19;95749.63;;;10.15;100.00
9521;BME280;4798;41.574;23.734;2023-02-28T01:30:50;95742.13;;;10.07;100.00
9521;BME280;4798;41.574;23.734;2023-02-28T01:33:19;95741.19;;;10.75;100.00
9521;BME280;4798;41.574;23.734;2023-02-28T01:35:47;95748.66;;;10.89;100.00
9521;BME280;4798;41.574;23.734;2023-02-28T01:38:16;95739.91;;;10.88;100.00
9521;BME280;4798;41.574;23.734;2023-02-28T01:40:49;95749.78;;;11.08;100.00
9521;BME280;4798;41.574;23.734;2023-02-28T01:43:22;95748.50;;;11.20;100.00
9521;BME280;4798;41.574;23.734;2023-02-28T01:45:54;95757.22;;;11.11;100.00
9521;BME280;4798;41.574;23.734;2023-02-28T01:48:26;95760.53;;;10.76;100.00
9521;BME280;4798;41.574;23.734;2023-02-28T01:50:56;95736.63;;;10.61;100.00
9521;BME280;4798;41.574;23.734;2023-02-28T01:53:32;95767.31;;;11.14;100.00
9521;BME280;4798;41.574;23.734;2023-02-28T01:56:03;95767.09;;;11.30;100.00
9521;BME280;4798;41.574;23.734;2023-02-28T01:58:34;95679.44;;;10.75;100.00
9521;BME280;4798;41.574;23.734;2023-02-28T02:01:05;95757.53;;;11.39;100.00
9521;BME280;4798;41.574;23.734;2023-02-28T02:03:35;95772.44;;;11.51;100.00
9521;BME280;4798;41.574;23.734;2023-02-28T02:06:04;95773.78;;;10.71;100.00
9521;BME280;4798;41.574;23.734;2023-02-28T02:08:32;95776.84;;;10.53;100.00
9521;BME280;4798;41.574;23.734;2023-02-28T02:11:02;95783.91;;;10.84;100.00
9521;BME280;4798;41.574;23.734;2023-02-28T02:13:50;95783.44;;;10.97;100.00
9521;BME280;4798;41.574;23.734;2023-02-28T02:16:41;95773.63;;;10.93;100.00
9521;BME280;4798;41.574;23.734;2023-02-28T02:19:39;95759.50;;;10.77;100.00
9521;BME280;4798;41.574;23.734;2023-02-28T02:22:38;95791.06;;;10.83;100.00
9521;BME280;4798;41.574;23.734;2023-02-28T02:25:26;95803.13;;;10.17;100.00
9521;BME280;4798;41.574;23.734;2023-02-28T02:28:19;95794.44;;;10.22;100.00
9521;BME280;4798;41.574;23.734;2023-02-28T02:31:12;95802.88;;;10.14;100.00
9521;BME280;4798;41.574;23.734;2023-02-28T02:34:10;95808.59;;;10.06;100.00
9521;BME280;4798;41.574;23.734;2023-02-28T02:36:48;95805.81;;;10.23;100.00
9521;BME280;4798;41.574;23.734;2023-02-28T02:39:25;95791.31;;;10.30;100.00
9521;BME280;4798;41.574;23.734;2023-02-28T02:42:01;95812.56;;;10.40;100.00
9521;BME280;4798;41.574;23.734;2023-02-28T02:44:34;95769.75;;;10.58;100.00
9521;BME280;4798;41.574;23.734;2023-02-28T02:47:09;95755.44;;;10.59;100.00
9521;BME280;4798;41.574;23.734;2023-02-28T02:49:43;95805.88;;;10.74;100.00
9521;BME280;4798;41.574;23.734;2023-02-28T02:52:16;95803.25;;;10.79;100.00
9521;BME280;4798;41.574;23.734;2023-02-28T02:54:46;95804.44;;;10.52;100.00
9521;BME280;4798;41.574;23.734;2023-02-28T02:57:24;95817.25;;;10.65;100.00
9521;BME280;4798;41.574;23.734;2023-02-28T02:59:55;95800.16;;;10.98;100.00
9521;BME280;4798;41.574;23.734;2023-02-28T03:02:26;95807.88;;;11.04;100.00
9521;BME280;4798;41.574;23.734;2023-02-28T03:05:05;95805.78;;;11.16;100.00
9521;BME280;4798;41.574;23.734;2023-02-28T03:07:35;95754.09;;;10.52;100.00
9521;BME280;4798;41.574;23.734;2023-02-28T03:10:36;95810.78;;;10.51;100.00
9521;BME280;4798;41.574;23.734;2023-02-28T03:13:27;95814.63;;;10.75;100.00
9521;BME280;4798;41.574;23.734;2023-02-28T03:16:15;95819.28;;;11.05;100.00
9521;BME280;4798;41.574;23.734;2023-02-28T03:18:54;95771.97;;;10.81;100.00
9521;BME280;4798;41.574;23.734;2023-02-28T03:21:33;95822.53;;;11.27;100.00
9521;BME280;4798;41.574;23.734;2023-02-28T03:24:05;95803.13;;;11.16;100.00
9521;BME280;4798;41.574;23.734;2023-02-28T03:26:39;95823.88;;;11.29;100.00
9521;BME280;4798;41.574;23.734;2023-02-28T03:29:15;95826.59;;;11.55;100.00
9521;BME280;4798;41.574;23.734;2023-02-28T03:31:53;95802.34;;;11.26;100.00
9521;BME280;4798;41.574;23.734;2023-02-28T03:34:28;95822.06;;;11.45;100.00
9521;BME280;4798;41.574;23.734;2023-02-28T03:37:01;95824.44;;;11.46;100.00
9521;BME280;4798;41.574;23.734;2023-02-28T03:39:36;95805.84;;;11.46;100.00
9521;BME280;4798;41.574;23.734;2023-02-28T03:42:09;95825.19;;;11.32;100.00
9521;BME280;4798;41.574;23.734;2023-02-28T03:44:41;95827.34;;;11.35;100.00
9521;BME280;4798;41.574;23.734;2023-02-28T03:47:13;95828.69;;;11.47;100.00
9521;BME280;4798;41.574;23.734;2023-02-28T03:49:47;95840.66;;;11.50;100.00
9521;BME280;4798;41.574;23.734;2023-02-28T03:52:21;95784.53;;;11.06;100.00
9521;BME280;4798;41.574;23.734;2023-02-28T03:54:54;95778.97;;;10.51;100.00
9521;BME280;4798;41.574;23.734;2023-02-28T03:57:30;95770.81;;;10.15;100.00
9521;BME280;4798;41.574;23.734;2023-02-28T04:00:04;95835.75;;;10.60;100.00
9521;BME280;4798;41.574;23.734;2023-02-28T04:02:33;95782.50;;;10.66;100.00
9521;BME280;4798;41.574;23.734;2023-02-28T04:05:02;95841.25;;;10.48;100.00
9521;BME280;4798;41.574;23.734;2023-02-28T04:07:32;95844.38;;;10.08;100.00
9521;BME280;4798;41.574;23.734;2023-02-28T04:10:01;95856.19;;;9.96;100.00
9521;BME280;4798;41.574;23.734;2023-02-28T04:12:29;95851.38;;;9.61;100.00
9521;BME280;4798;41.574;23.734;2023-02-28T04:14:57;95840.19;;;9.59;100.00
9521;BME280;4798;41.574;23.734;2023-02-28T04:17:26;95861.97;;;10.19;100.00
9521;BME280;4798;41.574;23.734;2023-02-28T04:19:54;95853.16;;;10.46;100.00
9521;BME280;4798;41.574;23.734;2023-02-28T04:22:24;95856.72;;;10.66;100.00
9521;BME280;4798;41.574;23.734;2023-02-28T04:24:55;95848.81;;;10.71;100.00
9521;BME280;4798;41.574;23.734;2023-02-28T04:27:23;95852.63;;;10.44;100.00
9521;BME280;4798;41.574;23.734;2023-02-28T04:29:51;95854.66;;;10.05;100.00
9521;BME280;4798;41.574;23.734;2023-02-28T04:32:20;95861.56;;;9.79;100.00
9521;BME280;4798;41.574;23.734;2023-02-28T04:34:48;95856.28;;;10.06;100.00
9521;BME280;4798;41.574;23.734;2023-02-28T04:37:16;95856.22;;;10.33;100.00
9521;BME280;4798;41.574;23.734;2023-02-28T04:39:44;95855.41;;;10.64;100.00
9521;BME280;4798;41.574;23.734;2023-02-28T04:42:15;95868.16;;;10.67;100.00
9521;BME280;4798;41.574;23.734;2023-02-28T04:44:43;95860.66;;;10.59;100.00
9521;BME280;4798;41.574;23.734;2023-02-28T04:47:11;95854.47;;;10.43;100.00
9521;BME280;4798;41.574;23.734;2023-02-28T04:49:39;95853.28;;;10.66;100.00
9521;BME280;4798;41.574;23.734;2023-02-28T04:52:08;95855.50;;;10.84;100.00
9521;BME280;4798;41.574;23.734;2023-02-28T04:54:37;95863.28;;;11.06;100.00
9521;BME280;4798;41.574;23.734;2023-02-28T04:57:06;95867.03;;;10.63;100.00
9521;BME280;4798;41.574;23.734;2023-02-28T04:59:36;95863.22;;;10.44;100.00
9521;BME280;4798;41.574;23.734;2023-02-28T05:02:05;95870.81;;;10.72;100.00
9521;BME280;4798;41.574;23.734;2023-02-28T05:04:34;95806.59;;;10.55;100.00
9521;BME280;4798;41.574;23.734;2023-02-28T05:07:03;95856.59;;;10.46;100.00
9521;BME280;4798;41.574;23.734;2023-02-28T05:09:31;95870.44;;;10.53;100.00
9521;BME280;4798;41.574;23.734;2023-02-28T05:12:01;95884.66;;;10.79;100.00
9521;BME280;4798;41.574;23.734;2023-02-28T05:14:30;95880.75;;;10.92;100.00
9521;BME280;4798;41.574;23.734;2023-02-28T05:16:59;95882.63;;;11.01;100.00
9521;BME280;4798;41.574;23.734;2023-02-28T05:19:27;95881.19;;;10.78;100.00
9521;BME280;4798;41.574;23.734;2023-02-28T05:21:56;95878.69;;;10.57;100.00
9521;BME280;4798;41.574;23.734;2023-02-28T05:24:25;95875.72;;;10.16;100.00
9521;BME280;4798;41.574;23.734;2023-02-28T05:26:54;95879.41;;;10.47;100.00
9521;BME280;4798;41.574;23.734;2023-02-28T05:29:22;95793.22;;;10.03;100.00
9521;BME280;4798;41.574;23.734;2023-02-28T05:31:51;95885.50;;;10.90;100.00
9521;BME280;4798;41.574;23.734;2023-02-28T05:34:21;95885.75;;;10.88;100.00
9521;BME280;4798;41.574;23.734;2023-02-28T05:36:49;95887.41;;;10.99;100.00
9521;BME280;4798;41.574;23.734;2023-02-28T05:39:17;95876.78;;;10.94;100.00
9521;BME280;4798;41.574;23.734;2023-02-28T05:41:46;95881.91;;;11.16;100.00
9521;BME280;4798;41.574;23.734;2023-02-28T05:44:15;95889.38;;;11.24;100.00
9521;BME280;4798;41.574;23.734;2023-02-28T05:46:43;95898.03;;;11.61;100.00
9521;BME280;4798;41.574;23.734;2023-02-28T05:49:12;95892.44;;;11.63;100.00
9521;BME280;4798;41.574;23.734;2023-02-28T05:51:41;95857.13;;;10.90;100.00
9521;BME280;4798;41.574;23.734;2023-02-28T05:54:10;95891.09;;;10.98;100.00
9521;BME280;4798;41.574;23.734;2023-02-28T05:56:39;95904.34;;;11.50;100.00
9521;BME280;4798;41.574;23.734;2023-02-28T05:59:11;95854.69;;;11.35;100.00
9521;BME280;4798;41.574;23.734;2023-02-28T06:01:41;95865.88;;;11.53;100.00
9521;BME280;4798;41.574;23.734;2023-02-28T06:04:16;95910.56;;;11.71;100.00
9521;BME280;4798;41.574;23.734;2023-02-28T06:06:58;95914.81;;;11.77;100.00
9521;BME280;4798;41.574;23.734;2023-02-28T06:09:28;95909.81;;;11.85;100.00
9521;BME280;4798;41.574;23.734;2023-02-28T06:11:58;95919.16;;;12.08;100.00
9521;BME280;4798;41.574;23.734;2023-02-28T06:14:26;95912.25;;;12.27;100.00
9521;BME280;4798;41.574;23.734;2023-02-28T06:16:54;95917.31;;;12.39;100.00
9521;BME280;4798;41.574;23.734;2023-02-28T06:19:25;95919.44;;;12.42;100.00
9521;BME280;4798;41.574;23.734;2023-02-28T06:21:54;95920.75;;;12.09;100.00
9521;BME280;4798;41.574;23.734;2023-02-28T06:24:27;95921.66;;;10.64;100.00
9521;BME280;4798;41.574;23.734;2023-02-28T06:26:58;95934.97;;;10.69;100.00
9521;BME280;4798;41.574;23.734;2023-02-28T06:29:32;95931.91;;;10.87;100.00
9521;BME280;4798;41.574;23.734;2023-02-28T06:32:01;95926.38;;;10.25;100.00
9521;BME280;4798;41.574;23.734;2023-02-28T06:34:30;95926.59;;;10.18;100.00
9521;BME280;4798;41.574;23.734;2023-02-28T06:36:58;95929.88;;;10.31;100.00
9521;BME280;4798;41.574;23.734;2023-02-28T06:39:30;95933.25;;;10.21;100.00
9521;BME280;4798;41.574;23.734;2023-02-28T06:41:58;95918.03;;;10.11;100.00
9521;BME280;4798;41.574;23.734;2023-02-28T06:44:27;95912.00;;;10.16;100.00
9521;BME280;4798;41.574;23.734;2023-02-28T06:47:03;95876.56;;;9.95;100.00
9521;BME280;4798;41.574;23.734;2023-02-28T06:49:33;95932.16;;;10.49;100.00
9521;BME280;4798;41.574;23.734;2023-02-28T06:52:02;95937.59;;;11.11;100.00
9521;BME280;4798;41.574;23.734;2023-02-28T06:54:32;95930.44;;;11.11;100.00
9521;BME280;4798;41.574;23.734;2023-02-28T06:57:00;95929.59;;;11.53;100.00
9521;BME280;4798;41.574;23.734;2023-02-28T06:59:29;95935.97;;;11.57;100.00
9521;BME280;4798;41.574;23.734;2023-02-28T07:01:57;95926.22;;;11.72;100.00
9521;BME280;4798;41.574;23.734;2023-02-28T07:04:25;95919.63;;;11.80;100.00
9521;BME280;4798;41.574;23.734;2023-02-28T07:06:54;95926.28;;;11.92;100.00
9521;BME280;4798;41.574;23.734;2023-02-28T07:09:23;95866.94;;;11.57;100.00
9521;BME280;4798;41.574;23.734;2023-02-28T07:11:57;95930.75;;;11.82;100.00
9521;BME280;4798;41.574;23.734;2023-02-28T07:14:27;95927.34;;;11.91;100.00
9521;BME280;4798;41.574;23.734;2023-02-28T07:16:55;95925.84;;;11.54;100.00
9521;BME280;4798;41.574;23.734;2023-02-28T07:19:24;95934.38;;;11.56;100.00
9521;BME280;4798;41.574;23.734;2023-02-28T07:21:52;95935.38;;;11.39;100.00
9521;BME280;4798;41.574;23.734;2023-02-28T07:24:20;95928.38;;;11.75;100.00
9521;BME280;4798;41.574;23.734;2023-02-28T07:26:52;95921.50;;;11.94;100.00
9521;BME280;4798;41.574;23.734;2023-02-28T07:29:22;95924.97;;;12.10;100.00
9521;BME280;4798;41.574;23.734;2023-02-28T07:31:50;95865.38;;;11.66;100.00
9521;BME280;4798;41.574;23.734;2023-02-28T07:34:20;95886.31;;;11.57;100.00
9521;BME280;4798;41.574;23.734;2023-02-28T07:36:48;95937.69;;;11.88;100.00
9521;BME280;4798;41.574;23.734;2023-02-28T07:39:20;95932.72;;;12.22;100.00
9521;BME280;4798;41.574;23.734;2023-02-28T07:41:49;95934.53;;;12.01;100.00
9521;BME280;4798;41.574;23.734;2023-02-28T07:44:17;95938.81;;;12.22;100.00
9521;BME280;4798;41.574;23.734;2023-02-28T07:46:47;95936.19;;;12.42;100.00
9521;BME280;4798;41.574;23.734;2023-02-28T07:49:15;95936.44;;;12.41;100.00
9521;BME280;4798;41.574;23.734;2023-02-28T07:51:44;95932.72;;;12.82;100.00
9521;BME280;4798;41.574;23.734;2023-02-28T07:54:12;95935.13;;;12.79;100.00
9521;BME280;4798;41.574;23.734;2023-02-28T07:56:40;95930.31;;;12.70;100.00
9521;BME280;4798;41.574;23.734;2023-02-28T07:59:09;95926.63;;;12.71;100.00
9521;BME280;4798;41.574;23.734;2023-02-28T08:01:37;95941.78;;;12.71;100.00
9521;BME280;4798;41.574;23.734;2023-02-28T08:04:07;95928.16;;;13.23;99.66
9521;BME280;4798;41.574;23.734;2023-02-28T08:06:35;95929.53;;;13.10;99.34
9521;BME280;4798;41.574;23.734;2023-02-28T08:09:03;95928.19;;;13.13;100.00
9521;BME280;4798;41.574;23.734;2023-02-28T08:11:32;95933.16;;;13.40;100.00
9521;BME280;4798;41.574;23.734;2023-02-28T08:14:00;95929.75;;;13.88;95.87
9521;BME280;4798;41.574;23.734;2023-02-28T08:16:28;95925.41;;;14.46;91.52
9521;BME280;4798;41.574;23.734;2023-02-28T08:18:57;95929.94;;;14.45;87.89
9521;BME280;4798;41.574;23.734;2023-02-28T08:21:26;95926.19;;;14.51;86.91
9521;BME280;4798;41.574;23.734;2023-02-28T08:23:55;95922.34;;;14.91;87.06
9521;BME280;4798;41.574;23.734;2023-02-28T08:26:24;95927.09;;;14.99;85.68
9521;BME280;4798;41.574;23.734;2023-02-28T08:28:52;95912.97;;;15.70;82.25
9521;BME280;4798;41.574;23.734;2023-02-28T08:31:22;95916.16;;;15.72;79.54
9521;BME280;4798;41.574;23.734;2023-02-28T08:33:51;95904.28;;;16.20;77.78
9521;BME280;4798;41.574;23.734;2023-02-28T08:36:20;95906.44;;;16.00;78.47
9521;BME280;4798;41.574;23.734;2023-02-28T08:38:49;95909.53;;;15.88;77.90
9521;BME280;4798;41.574;23.734;2023-02-28T08:41:18;95912.34;;;15.97;76.18
9521;BME280;4798;41.574;23.734;2023-02-28T08:43:46;95915.78;;;15.60;78.92
9521;BME280;4798;41.574;23.734;2023-02-28T08:46:14;95860.09;;;15.67;77.84
9521;BME280;4798;41.574;23.734;2023-02-28T08:48:43;95913.22;;;16.48;76.63
9521;BME280;4798;41.574;23.734;2023-02-28T08:51:13;95908.09;;;17.30;74.67
9521;BME280;4798;41.574;23.734;2023-02-28T08:53:43;95912.84;;;17.73;69.91
9521;BME280;4798;41.574;23.734;2023-02-28T08:56:13;95898.44;;;18.32;67.40
9521;BME280;4798;41.574;23.734;2023-02-28T08:58:44;95879.28;;;17.90;67.32
9521;BME280;4798;41.574;23.734;2023-02-28T09:01:14;95898.03;;;18.39;65.95
9521;BME280;4798;41.574;23.734;2023-02-28T09:03:43;95893.53;;;18.70;63.91
9521;BME280;4798;41.574;23.734;2023-02-28T09:06:13;95886.47;;;18.74;63.16
9521;BME280;4798;41.574;23.734;2023-02-28T09:08:42;95882.28;;;17.88;64.79
9521;BME280;4798;41.574;23.734;2023-02-28T09:11:12;95875.66;;;18.08;66.23
9521;BME280;4798;41.574;23.734;2023-02-28T09:13:41;95884.41;;;18.80;64.89
9521;BME280;4798;41.574;23.734;2023-02-28T09:16:11;95883.00;;;18.82;63.49
9521;BME280;4798;41.574;23.734;2023-02-28T09:18:40;95878.63;;;18.86;63.58
9521;BME280;4798;41.574;23.734;2023-02-28T09:21:10;95866.63;;;19.23;61.62
9521;BME280;4798;41.574;23.734;2023-02-28T09:23:41;95867.75;;;19.31;62.34
9521;BME280;4798;41.574;23.734;2023-02-28T09:26:15;95855.50;;;19.08;61.71
9521;BME280;4798;41.574;23.734;2023-02-28T09:28:44;95853.78;;;19.12;61.29
9521;BME280;4798;41.574;23.734;2023-02-28T09:31:13;95858.53;;;19.54;60.65
9521;BME280;4798;41.574;23.734;2023-02-28T09:33:42;95855.28;;;19.91;58.37
9521;BME280;4798;41.574;23.734;2023-02-28T09:36:10;95859.84;;;19.65;58.31
9521;BME280;4798;41.574;23.734;2023-02-28T09:38:38;95861.38;;;19.18;60.19
9521;BME280;4798;41.574;23.734;2023-02-28T09:41:12;95851.00;;;18.42;62.53
9521;BME280;4798;41.574;23.734;2023-02-28T09:43:45;95859.41;;;17.91;63.27
9521;BME280;4798;41.574;23.734;2023-02-28T09:46:25;95859.13;;;17.10;65.40
9521;BME280;4798;41.574;23.734;2023-02-28T09:48:55;95857.88;;;17.62;65.23
9521;BME280;4798;41.574;23.734;2023-02-28T09:51:34;95855.06;;;16.86;66.71
9521;BME280;4798;41.574;23.734;2023-02-28T09:54:06;95823.56;;;16.32;68.10
9521;BME280;4798;41.574;23.734;2023-02-28T09:56:39;95849.28;;;16.46;69.90
9521;BME280;4798;41.574;23.734;2023-02-28T09:59:20;95846.75;;;17.28;68.05
9521;BME280;4798;41.574;23.734;2023-02-28T10:01:56;95834.78;;;17.89;65.64
9521;BME280;4798;41.574;23.734;2023-02-28T10:04:37;95823.84;;;18.43;64.46
9521;BME280;4798;41.574;23.734;2023-02-28T10:07:19;95803.69;;;19.16;61.83
9521;BME280;4798;41.574;23.734;2023-02-28T10:09:53;95815.25;;;19.73;60.20
9521;BME280;4798;41.574;23.734;2023-02-28T10:12:24;95789.94;;;19.17;59.16
9521;BME280;4798;41.574;23.734;2023-02-28T10:14:58;95810.50;;;18.82;60.64
9521;BME280;4798;41.574;23.734;2023-02-28T10:17:38;95779.41;;;18.90;61.22
9521;BME280;4798;41.574;23.734;2023-02-28T10:20:23;95782.00;;;18.64;61.86
9521;BME280;4798;41.574;23.734;2023-02-28T10:23:03;95802.28;;;19.18;61.05
9521;BME280;4798;41.574;23.734;2023-02-28T10:25:35;95755.78;;;19.09;60.38
9521;BME280;4798;41.574;23.734;2023-02-28T10:28:10;95797.88;;;19.31;60.29
9521;BME280;4798;41.574;23.734;2023-02-28T10:30:42;95787.38;;;18.64;61.01
9521;BME280;4798;41.574;23.734;2023-02-28T10:33:19;95786.66;;;18.81;61.37
9521;BME280;4798;41.574;23.734;2023-02-28T10:35:48;95745.06;;;19.26;60.89
9521;BME280;4798;41.574;23.734;2023-02-28T10:38:19;95777.72;;;19.59;58.63
9521;BME280;4798;41.574;23.734;2023-02-28T10:40:47;95772.84;;;19.13;60.13
9521;BME280;4798;41.574;23.734;2023-02-28T10:43:21;95768.56;;;19.03;59.93
9521;BME280;4798;41.574;23.734;2023-02-28T10:45:59;95758.19;;;19.19;61.13
9521;BME280;4798;41.574;23.734;2023-02-28T10:48:37;95752.34;;;18.78;62.42
9521;BME280;4798;41.574;23.734;2023-02-28T10:51:07;95750.41;;;19.09;60.55
9521;BME280;4798;41.574;23.734;2023-02-28T10:53:39;95756.63;;;18.79;61.08
9521;BME280;4798;41.574;23.734;2023-02-28T10:56:27;95731.94;;;19.33;58.90
9521;BME280;4798;41.574;23.734;2023-02-28T10:59:00;95738.50;;;19.67;57.87
9521;BME280;4798;41.574;23.734;2023-02-28T11:01:38;95752.91;;;18.97;60.71
9521;BME280;4798;41.574;23.734;2023-02-28T11:04:32;95743.91;;;19.01;60.77
9521;BME280;4798;41.574;23.734;2023-02-28T11:07:04;95742.75;;;18.55;60.66
9521;BME280;4798;41.574;23.734;2023-02-28T11:09:34;95740.53;;;17.59;63.49
9521;BME280;4798;41.574;23.734;2023-02-28T11:12:05;95732.50;;;17.10;66.26
9521;BME280;4798;41.574;23.734;2023-02-28T11:14:39;95733.34;;;17.33;65.94
9521;BME280;4798;41.574;23.734;2023-02-28T11:17:14;95732.44;;;17.37;64.95
9521;BME280;4798;41.574;23.734;2023-02-28T11:19:51;95726.84;;;17.47;65.00
9521;BME280;4798;41.574;23.734;2023-02-28T11:22:22;95698.84;;;17.53;65.36
9521;BME280;4798;41.574;23.734;2023-02-28T11:24:54;95720.47;;;17.57;66.82
9521;BME280;4798;41.574;23.734;2023-02-28T11:27:45;95716.75;;;16.95;67.34
9521;BME280;4798;41.574;23.734;2023-02-28T11:30:30;95722.75;;;17.14;67.70
9521;BME280;4798;41.574;23.734;2023-02-28T11:33:20;95716.63;;;16.73;68.76
9521;BME280;4798;41.574;23.734;2023-02-28T11:35:50;95720.97;;;16.41;69.25
9521;BME280;4798;41.574;23.734;2023-02-28T11:38:19;95719.59;;;16.58;69.82
9521;BME280;4798;41.574;23.734;2023-02-28T11:41:00;95714.84;;;16.82;70.56
9521;BME280;4798;41.574;23.734;2023-02-28T11:46:31;95721.38;;;16.76;70.52
9521;BME280;4798;41.574;23.734;2023-02-28T11:49:14;95715.41;;;16.51;70.49
9521;BME280;4798;41.574;23.734;2023-02-28T11:51:49;95715.44;;;16.79;71.36
9521;BME280;4798;41.574;23.734;2023-02-28T11:54:38;95701.84;;;16.75;71.98
9521;BME280;4798;41.574;23.734;2023-02-28T11:57:26;95558.94;;;15.35;77.57
9521;BME280;4798;41.574;23.734;2023-02-28T12:00:03;95733.84;;;16.07;81.32
9521;BME280;4798;41.574;23.734;2023-02-28T12:02:44;95695.69;;;15.88;80.35
9521;BME280;4798;41.574;23.734;2023-02-28T12:05:27;95707.28;;;16.43;79.26
9521;BME280;4798;41.574;23.734;2023-02-28T12:08:04;95708.69;;;16.68;78.79
9521;BME280;4798;41.574;23.734;2023-02-28T12:10:37;95704.19;;;16.36;84.13
9521;BME280;4798;41.574;23.734;2023-02-28T12:13:18;95702.09;;;15.87;99.19
9521;BME280;4798;41.574;23.734;2023-02-28T12:16:01;95695.38;;;15.89;100.00
9521;BME280;4798;41.574;23.734;2023-02-28T12:18:51;95697.44;;;15.42;100.00
9521;BME280;4798;41.574;23.734;2023-02-28T12:21:29;95688.72;;;15.73;100.00
9521;BME280;4798;41.574;23.734;2023-02-28T12:24:24;95710.69;;;15.70;100.00
9521;BME280;4798;41.574;23.734;2023-02-28T12:26:56;95701.63;;;15.85;100.00
9521;BME280;4798;41.574;23.734;2023-02-28T12:29:29;95689.56;;;15.13;100.00
9521;BME280;4798;41.574;23.734;2023-02-28T12:32:03;95702.75;;;14.43;100.00
9521;BME280;4798;41.574;23.734;2023-02-28T12:34:35;95730.56;;;14.61;100.00
9521;BME280;4798;41.574;23.734;2023-02-28T12:37:10;95715.94;;;14.01;100.00
9521;BME280;4798;41.574;23.734;2023-02-28T12:39:45;95715.22;;;13.90;100.00
9521;BME280;4798;41.574;23.734;2023-02-28T12:42:19;95734.53;;;13.38;100.00
9521;BME280;4798;41.574;23.734;2023-02-28T12:44:54;95742.59;;;13.23;100.00
9521;BME280;4798;41.574;23.734;2023-02-28T12:47:24;95731.00;;;12.99;100.00
9521;BME280;4798;41.574;23.734;2023-02-28T12:49:56;95739.28;;;12.98;100.00
9521;BME280;4798;41.574;23.734;2023-02-28T12:52:35;95744.59;;;12.88;100.00
9521;BME280;4798;41.574;23.734;2023-02-28T12:55:14;95663.63;;;12.55;100.00
9521;BME280;4798;41.574;23.734;2023-02-28T12:57:51;95745.09;;;13.05;100.00
9521;BME280;4798;41.574;23.734;2023-02-28T13:00:23;95748.91;;;12.84;100.00
9521;BME280;4798;41.574;23.734;2023-02-28T13:03:11;95755.13;;;12.54;100.00
9521;BME280;4798;41.574;23.734;2023-02-28T13:06:10;95761.53;;;12.43;100.00
9521;BME280;4798;41.574;23.734;2023-02-28T13:09:02;95757.81;;;12.39;100.00
9521;BME280;4798;41.574;23.734;2023-02-28T13:11:34;95754.38;;;12.33;100.00
9521;BME280;4798;41.574;23.734;2023-02-28T13:14:18;95756.50;;;12.31;100.00
9521;BME280;4798;41.574;23.734;2023-02-28T13:16:57;95758.03;;;12.52;100.00
9521;BME280;4798;41.574;23.734;2023-02-28T13:19:28;95758.63;;;12.39;100.00
9521;BME280;4798;41.574;23.734;2023-02-28T13:21:58;95760.22;;;12.30;100.00
9521;BME280;4798;41.574;23.734;2023-02-28T13:24:44;95741.63;;;12.15;100.00
9521;BME280;4798;41.574;23.734;2023-02-28T13:27:32;95766.09;;;12.12;100.00
9521;BME280;4798;41.574;23.734;2023-02-28T13:30:02;95762.09;;;12.09;100.00
9521;BME280;4798;41.574;23.734;2023-02-28T13:33:19;95768.50;;;12.03;100.00
9521;BME280;4798;41.574;23.734;2023-02-28T13:36:06;95764.25;;;12.02;100.00